createdAt,value
2018-03-16T00:01:05.983Z,5.80
2018-03-16T00:03:33.566Z,8.80
2018-03-16T00:06:01.111Z,11.70
2018-03-16T00:08:28.654Z,9.87
2018-03-16T00:10:56.224Z,9.57
2018-03-16T00:13:23.783Z,10.03
2018-03-16T00:15:51.334Z,10.80
2018-03-16T00:18:19.209Z,13.40
2018-03-16T00:20:46.751Z,13.73
2018-03-16T00:23:14.291Z,12.20
2018-03-16T00:25:42.167Z,13.10
2018-03-16T00:28:09.734Z,12.93
2018-03-16T00:30:37.289Z,12.10
2018-03-16T00:33:04.871Z,11.63
2018-03-16T00:35:32.456Z,10.63
2018-03-16T00:37:59.999Z,8.67
2018-03-16T00:40:27.597Z,7.50
2018-03-16T00:42:55.160Z,15.80
2018-03-16T00:45:22.701Z,17.37
2018-03-16T00:47:50.582Z,14.07
2018-03-16T00:50:18.134Z,14.63
2018-03-16T00:52:45.715Z,17.67
2018-03-16T00:55:13.461Z,16.80
2018-03-16T00:57:41.069Z,15.93
2018-03-16T01:00:08.608Z,17.43
2018-03-16T01:02:36.172Z,17.27
2018-03-16T01:05:03.764Z,15.93
2018-03-16T01:07:31.320Z,13.43
2018-03-16T01:09:58.893Z,13.83
2018-03-16T01:12:26.465Z,18.43
2018-03-16T01:14:54.013Z,17.60
2018-03-16T01:17:21.609Z,15.97
2018-03-16T01:19:49.148Z,15.83
2018-03-16T01:22:16.689Z,26.20
2018-03-16T01:24:44.262Z,17.53
2018-03-16T01:27:11.810Z,21.50
2018-03-16T01:29:39.366Z,32.60
2018-03-16T01:32:06.960Z,29.17
2018-03-16T01:34:34.514Z,26.27
2018-03-16T01:37:02.059Z,27.53
2018-03-16T01:39:29.736Z,26.77
2018-03-16T01:41:57.282Z,27.27
2018-03-16T01:44:24.840Z,28.03
2018-03-16T01:46:52.426Z,29.03
2018-03-16T01:49:19.966Z,28.80
2018-03-16T01:51:47.522Z,28.23
2018-03-16T01:54:15.242Z,28.27
2018-03-16T01:56:42.788Z,27.27
2018-03-16T01:59:10.331Z,28.57
2018-03-16T02:01:37.907Z,28.27
2018-03-16T02:04:05.455Z,30.57
2018-03-16T02:06:33.006Z,26.80
2018-03-16T02:09:00.884Z,28.40
2018-03-16T02:11:28.450Z,26.83
2018-03-16T02:13:56.885Z,24.23
2018-03-16T02:16:24.457Z,24.97
2018-03-16T02:18:52.014Z,24.40
2018-03-16T02:21:19.573Z,25.70
2018-03-16T02:23:47.290Z,26.70
2018-03-16T02:26:14.838Z,28.70
2018-03-16T02:28:42.400Z,26.47
2018-03-16T02:31:09.991Z,30.00
2018-03-16T02:33:37.544Z,30.60
2018-03-16T02:36:05.097Z,31.23
2018-03-16T02:38:32.779Z,32.50
2018-03-16T02:41:00.316Z,31.83
2018-03-16T02:43:27.871Z,30.33
2018-03-16T02:45:55.463Z,32.03
2018-03-16T02:48:23.021Z,33.03
2018-03-16T02:50:50.567Z,31.30
2018-03-16T02:53:19.203Z,32.97
2018-03-16T02:55:46.758Z,30.80
2018-03-16T02:58:14.306Z,27.97
2018-03-16T03:00:42.029Z,28.43
2018-03-16T03:03:09.579Z,26.77
2018-03-16T03:05:37.127Z,26.03
2018-03-16T03:08:04.674Z,26.60
2018-03-16T03:10:32.229Z,23.50
2018-03-16T03:13:00.129Z,25.13
2018-03-16T03:15:27.671Z,24.13
2018-03-16T03:17:55.221Z,23.30
2018-03-16T03:20:22.801Z,24.47
2018-03-16T03:22:50.346Z,26.47
2018-03-16T03:25:17.895Z,25.50
2018-03-16T03:27:45.574Z,22.47
2018-03-16T03:30:13.124Z,19.73
2018-03-16T03:32:40.682Z,19.70
2018-03-16T03:35:08.271Z,18.37
2018-03-16T03:37:35.859Z,17.47
2018-03-16T03:40:03.435Z,27.73
2018-03-16T03:42:31.024Z,23.73
2018-03-16T03:44:58.599Z,27.27
2018-03-16T03:47:26.149Z,23.83
2018-03-16T03:49:53.742Z,24.47
2018-03-16T03:52:21.308Z,26.57
2018-03-16T03:54:48.858Z,25.27
2018-03-16T03:57:16.745Z,25.03
2018-03-16T03:59:44.300Z,22.83
2018-03-16T04:02:11.860Z,20.67
2018-03-16T04:04:39.433Z,18.40
2018-03-16T04:07:06.987Z,16.43
2018-03-16T04:09:34.551Z,13.73
2018-03-16T04:12:02.161Z,12.07
2018-03-16T04:14:29.716Z,10.73
2018-03-16T04:16:57.286Z,10.47
2018-03-16T04:19:24.884Z,10.30
2018-03-16T04:21:52.424Z,9.73
2018-03-16T04:24:19.974Z,11.50
2018-03-16T04:26:47.572Z,13.20
2018-03-16T04:29:15.112Z,11.07
2018-03-16T04:31:42.671Z,12.90
2018-03-16T04:34:10.386Z,17.07
2018-03-16T04:36:37.943Z,17.63
2018-03-16T04:39:05.518Z,20.87
2018-03-16T04:41:33.105Z,21.57
2018-03-16T04:44:00.654Z,22.67
2018-03-16T04:46:28.193Z,23.13
2018-03-16T04:48:55.786Z,22.73
2018-03-16T04:51:23.316Z,22.87
2018-03-16T04:53:50.873Z,22.13
2018-03-16T04:56:18.602Z,22.07
2018-03-16T04:58:46.149Z,22.00
2018-03-16T05:01:13.776Z,21.40
2018-03-16T05:03:41.306Z,28.77
2018-03-16T05:06:08.864Z,30.23
2018-03-16T05:08:36.407Z,26.30
2018-03-16T05:11:03.986Z,25.47
2018-03-16T05:13:31.532Z,22.70
2018-03-16T05:15:59.101Z,38.90
2018-03-16T05:18:27.007Z,28.37
2018-03-16T05:20:54.587Z,31.17
2018-03-16T05:23:22.149Z,21.50
2018-03-16T05:25:49.733Z,17.40
2018-03-16T05:28:17.307Z,14.13
2018-03-16T05:30:44.865Z,15.03
2018-03-16T05:33:12.456Z,15.97
2018-03-16T05:35:40.004Z,57.43
2018-03-16T05:38:07.551Z,18.73
2018-03-16T05:40:35.131Z,16.40
2018-03-16T05:43:02.691Z,15.90
2018-03-16T05:45:30.240Z,14.87
2018-03-16T05:47:57.813Z,14.23
2018-03-16T05:50:25.355Z,14.33
2018-03-16T05:52:52.909Z,15.30
2018-03-16T05:55:20.489Z,13.87
2018-03-16T05:57:48.035Z,12.87
2018-03-16T06:00:15.584Z,12.43
2018-03-16T06:02:43.315Z,14.40
2018-03-16T06:05:10.866Z,18.90
2018-03-16T06:07:38.438Z,15.50
2018-03-16T06:10:06.163Z,15.83
2018-03-16T06:12:33.711Z,15.73
2018-03-16T06:15:01.262Z,15.40
2018-03-16T06:17:28.842Z,19.40
2018-03-16T06:19:56.406Z,45.50
2018-03-16T06:22:23.950Z,23.33
2018-03-16T06:24:51.534Z,74.80
2018-03-16T06:27:19.088Z,23.70
2018-03-16T06:29:46.650Z,23.27
2018-03-16T06:32:14.358Z,22.43
2018-03-16T06:34:41.919Z,21.27
2018-03-16T06:37:09.471Z,22.00
2018-03-16T06:39:37.194Z,21.07
2018-03-16T06:42:04.759Z,19.40
2018-03-16T06:44:32.455Z,16.37
2018-03-16T06:47:00.324Z,19.37
2018-03-16T06:49:27.885Z,50.50
2018-03-16T06:51:55.514Z,42.43
2018-03-16T06:54:23.229Z,42.80
2018-03-16T06:56:50.782Z,24.60
2018-03-16T06:59:18.344Z,21.30
2018-03-16T07:01:46.031Z,21.90
2018-03-16T07:04:13.583Z,15.80
2018-03-16T07:06:41.126Z,15.90
2018-03-16T07:09:08.815Z,14.70
2018-03-16T07:11:36.367Z,15.67
2018-03-16T07:14:03.917Z,21.63
2018-03-16T07:16:31.514Z,13.77
2018-03-16T07:18:59.074Z,12.30
2018-03-16T07:21:26.620Z,16.00
2018-03-16T07:23:54.222Z,13.50
2018-03-16T07:26:21.767Z,13.13
2018-03-16T07:28:49.315Z,13.30
2018-03-16T07:31:17.051Z,13.60
2018-03-16T07:33:44.604Z,17.17
2018-03-16T07:36:12.154Z,18.83
2018-03-16T07:38:39.749Z,13.50
2018-03-16T07:41:07.301Z,11.47
2018-03-16T07:43:34.876Z,14.87
2018-03-16T07:46:03.364Z,11.50
2018-03-16T07:48:30.916Z,10.93
2018-03-16T07:50:58.462Z,10.67
2018-03-16T07:53:26.344Z,11.27
2018-03-16T07:55:53.882Z,11.27
2018-03-16T07:58:21.424Z,13.53
2018-03-16T08:00:49.002Z,19.27
2018-03-16T08:03:16.548Z,11.40
2018-03-16T08:05:44.103Z,11.33
2018-03-16T08:08:11.648Z,11.73
2018-03-16T08:10:39.203Z,13.53
2018-03-16T08:13:06.796Z,12.60
2018-03-16T08:15:34.346Z,18.50
2018-03-16T08:18:01.894Z,23.60
2018-03-16T08:20:29.533Z,23.93
2018-03-16T08:22:57.082Z,23.93
2018-03-16T08:25:24.679Z,21.93
2018-03-16T08:27:52.415Z,26.73
2018-03-16T08:30:19.979Z,13.73
2018-03-16T08:32:47.526Z,25.33
2018-03-16T08:35:15.406Z,14.33
2018-03-16T08:37:42.957Z,16.10
2018-03-16T08:40:10.512Z,15.37
2018-03-16T08:42:38.258Z,15.47
2018-03-16T08:45:05.804Z,17.60
2018-03-16T08:47:33.360Z,18.63
2018-03-16T08:50:01.084Z,16.97
2018-03-16T08:52:28.658Z,19.17
2018-03-16T08:54:56.202Z,19.37
2018-03-16T08:57:23.795Z,18.40
2018-03-16T08:59:51.350Z,18.13
2018-03-16T09:02:18.902Z,17.67
2018-03-16T09:04:46.536Z,18.90
2018-03-16T09:07:14.100Z,18.93
2018-03-16T09:09:41.645Z,18.97
2018-03-16T09:12:09.237Z,17.93
2018-03-16T09:14:36.796Z,20.03
2018-03-16T09:17:04.373Z,19.30
2018-03-16T09:19:32.095Z,19.23
2018-03-16T09:21:59.633Z,20.00
2018-03-16T09:24:27.193Z,19.33
2018-03-16T09:26:54.913Z,18.23
2018-03-16T09:29:22.467Z,18.27
2018-03-16T09:31:50.018Z,18.13
2018-03-16T09:34:17.747Z,17.13
2018-03-16T09:36:45.298Z,20.80
2018-03-16T09:39:12.852Z,19.27
2018-03-16T09:41:40.529Z,17.60
2018-03-16T09:44:09.082Z,19.03
2018-03-16T09:46:36.635Z,20.77
2018-03-16T09:49:04.362Z,25.73
2018-03-16T09:51:31.913Z,23.27
2018-03-16T09:53:59.466Z,19.33
2018-03-16T09:56:27.067Z,15.03
2018-03-16T09:58:54.632Z,14.93
2018-03-16T10:01:22.179Z,14.27
2018-03-16T10:03:49.773Z,12.77
2018-03-16T10:06:17.340Z,13.90
2018-03-16T10:08:44.889Z,12.83
2018-03-16T10:11:12.642Z,20.70
2018-03-16T10:13:40.195Z,13.80
2018-03-16T10:16:07.780Z,11.77
2018-03-16T10:18:35.378Z,13.97
2018-03-16T10:21:02.934Z,11.50
2018-03-16T10:23:30.481Z,39.27
2018-03-16T10:25:58.078Z,36.17
2018-03-16T10:28:25.647Z,18.00
2018-03-16T10:30:53.208Z,19.50
2018-03-16T10:33:20.802Z,13.27
2018-03-16T10:35:48.351Z,15.60
2018-03-16T10:38:15.894Z,14.63
2018-03-16T10:40:43.506Z,24.53
2018-03-16T10:43:11.058Z,14.23
2018-03-16T10:45:38.614Z,28.63
2018-03-16T10:48:06.214Z,17.83
2018-03-16T10:50:33.767Z,18.33
2018-03-16T10:53:01.338Z,16.80
2018-03-16T10:55:29.247Z,18.13
2018-03-16T10:57:56.798Z,16.17
2018-03-16T11:00:29.802Z,18.80
2018-03-16T11:03:03.020Z,16.60
2018-03-16T11:05:30.613Z,15.57
2018-03-16T11:07:58.179Z,15.40
2018-03-16T11:10:25.766Z,15.13
2018-03-16T11:12:53.323Z,15.50
2018-03-16T11:15:21.795Z,15.37
2018-03-16T11:17:49.538Z,15.33
2018-03-16T11:20:17.090Z,15.10
2018-03-16T11:22:44.640Z,9.23
2018-03-16T11:25:12.214Z,8.83
2018-03-16T11:27:39.775Z,7.93
2018-03-16T11:30:07.317Z,8.57
2018-03-16T11:32:34.994Z,9.07
2018-03-16T11:35:02.540Z,8.20
2018-03-16T11:37:30.101Z,7.03
2018-03-16T11:39:57.852Z,6.20
2018-03-16T11:42:25.404Z,5.33
2018-03-16T11:44:52.955Z,5.70
2018-03-16T11:47:20.531Z,5.57
2018-03-16T11:49:48.082Z,12.93
2018-03-16T11:52:15.630Z,6.30
2018-03-16T11:54:43.218Z,41.30
2018-03-16T11:57:10.767Z,9.90
2018-03-16T11:59:38.377Z,27.13
2018-03-16T12:02:05.973Z,6.37
2018-03-16T12:04:33.527Z,6.50
2018-03-16T12:07:01.094Z,20.47
2018-03-16T12:09:28.822Z,6.80
2018-03-16T12:11:56.363Z,8.13
2018-03-16T12:14:23.905Z,22.73
2018-03-16T12:16:51.508Z,10.43
2018-03-16T12:19:19.059Z,9.10
2018-03-16T12:21:46.615Z,5.90
2018-03-16T12:24:14.235Z,6.17
2018-03-16T12:26:41.796Z,5.70
2018-03-16T12:29:09.338Z,5.33
2018-03-16T12:31:36.914Z,6.40
2018-03-16T12:34:04.523Z,6.33
2018-03-16T12:36:32.221Z,6.40
2018-03-16T12:38:59.759Z,6.30
2018-03-16T12:41:27.343Z,20.50
2018-03-16T12:43:54.922Z,4.97
2018-03-16T12:46:22.474Z,6.00
2018-03-16T12:48:50.031Z,19.83
2018-03-16T12:51:17.597Z,5.67
2018-03-16T12:53:45.142Z,9.27
2018-03-16T12:56:12.725Z,14.80
2018-03-16T12:58:40.458Z,27.17
2018-03-16T13:01:08.018Z,32.97
2018-03-16T13:03:35.572Z,5.60
2018-03-16T13:06:03.154Z,5.07
2018-03-16T13:08:30.709Z,5.20
2018-03-16T13:10:58.320Z,4.87
2018-03-16T13:13:25.866Z,5.37
2018-03-16T13:15:53.418Z,4.87
2018-03-16T13:18:21.086Z,4.93
2018-03-16T13:20:48.622Z,5.90
2018-03-16T13:23:16.172Z,5.93
2018-03-16T13:25:43.790Z,5.27
2018-03-16T13:28:11.334Z,5.40
2018-03-16T13:30:38.882Z,5.27
2018-03-16T13:33:06.815Z,6.17
2018-03-16T13:35:34.397Z,5.47
2018-03-16T13:38:01.956Z,5.97
2018-03-16T13:40:29.698Z,4.70
2018-03-16T13:42:57.239Z,4.27
2018-03-16T13:45:24.784Z,7.57
2018-03-16T13:47:53.272Z,12.13
2018-03-16T13:50:20.805Z,4.13
2018-03-16T13:52:48.370Z,5.20
2018-03-16T13:55:16.233Z,3.67
2018-03-16T13:57:43.787Z,4.10
2018-03-16T14:00:11.349Z,3.37
2018-03-16T14:02:38.928Z,3.80
2018-03-16T14:05:06.482Z,3.87
2018-03-16T14:07:34.044Z,5.43
2018-03-16T14:10:01.622Z,4.80
2018-03-16T14:12:29.188Z,4.20
2018-03-16T14:14:56.776Z,4.40
2018-03-16T14:17:24.373Z,4.13
2018-03-16T14:19:51.926Z,6.20
2018-03-16T14:22:19.499Z,5.50
2018-03-16T14:24:47.396Z,5.07
2018-03-16T14:27:14.943Z,5.80
2018-03-16T14:29:42.494Z,6.87
2018-03-16T14:32:10.069Z,9.23
2018-03-16T14:34:37.624Z,6.30
2018-03-16T14:37:05.175Z,5.20
2018-03-16T14:39:32.746Z,5.33
2018-03-16T14:42:00.291Z,5.37
2018-03-16T14:44:27.838Z,6.00
2018-03-16T14:46:55.712Z,6.10
2018-03-16T14:49:23.288Z,6.00
2018-03-16T14:51:50.850Z,6.30
2018-03-16T14:54:18.448Z,6.73
2018-03-16T14:56:45.993Z,6.20
2018-03-16T14:59:13.587Z,12.40
2018-03-16T15:01:41.284Z,7.23
2018-03-16T15:04:08.859Z,7.20
2018-03-16T15:06:36.403Z,6.50
2018-03-16T15:09:04.012Z,6.73
2018-03-16T15:11:31.569Z,12.73
2018-03-16T15:13:59.217Z,9.00
2018-03-16T15:16:26.762Z,7.47
2018-03-16T15:18:54.306Z,6.37
2018-03-16T15:21:22.187Z,7.73
2018-03-16T15:23:49.744Z,7.10
2018-03-16T15:26:17.279Z,7.57
2018-03-16T15:28:45.764Z,7.90
2018-03-16T15:31:13.311Z,9.60
2018-03-16T15:33:40.859Z,9.67
2018-03-16T15:36:08.741Z,9.80
2018-03-16T15:38:36.316Z,15.53
2018-03-16T15:41:03.871Z,11.33
2018-03-16T15:43:31.601Z,8.80
2018-03-16T15:45:59.157Z,52.20
2018-03-16T15:48:26.707Z,23.90
2018-03-16T15:50:54.290Z,10.03
2018-03-16T15:53:21.847Z,9.40
2018-03-16T15:55:49.399Z,24.10
2018-03-16T15:58:17.001Z,22.30
2018-03-16T16:00:44.561Z,18.77
2018-03-16T16:03:12.120Z,19.70
2018-03-16T16:05:39.728Z,10.93
2018-03-16T16:08:07.287Z,11.47
2018-03-16T16:10:34.836Z,11.87
2018-03-16T16:13:02.578Z,12.10
2018-03-16T16:15:30.159Z,16.33
2018-03-16T16:17:57.723Z,16.00
2018-03-16T16:20:25.458Z,13.43
2018-03-16T16:22:53.021Z,12.97
2018-03-16T16:25:20.577Z,12.17
2018-03-16T16:27:48.335Z,16.10
2018-03-16T16:30:15.927Z,18.03
2018-03-16T16:32:43.500Z,14.80
2018-03-16T16:35:11.189Z,16.40
2018-03-16T16:37:38.776Z,17.80
2018-03-16T16:40:06.378Z,16.63
2018-03-16T16:42:33.967Z,14.13
2018-03-16T16:45:01.526Z,13.17
2018-03-16T16:47:29.078Z,13.00
2018-03-16T16:49:56.873Z,20.80
2018-03-16T16:52:24.434Z,18.97
2018-03-16T16:54:52.069Z,12.67
2018-03-16T16:57:19.758Z,13.03
2018-03-16T16:59:47.332Z,12.40
2018-03-16T17:02:14.890Z,12.73
2018-03-16T17:04:42.467Z,14.33
2018-03-16T17:07:10.031Z,11.27
2018-03-16T17:09:37.577Z,15.40
2018-03-16T17:12:05.280Z,13.53
2018-03-16T17:14:32.822Z,13.23
2018-03-16T17:17:00.443Z,14.23
2018-03-16T17:19:27.998Z,19.20
2018-03-16T17:21:55.547Z,13.97
2018-03-16T17:24:23.103Z,13.43
2018-03-16T17:26:50.827Z,13.50
2018-03-16T17:29:18.380Z,13.47
2018-03-16T17:31:45.936Z,12.50
2018-03-16T17:34:13.963Z,16.73
2018-03-16T17:36:41.522Z,13.77
2018-03-16T17:39:09.066Z,10.00
2018-03-16T17:41:36.669Z,10.80
2018-03-16T17:44:04.232Z,12.57
2018-03-16T17:46:31.788Z,19.20
2018-03-16T17:48:59.530Z,16.17
2018-03-16T17:51:27.089Z,15.30
2018-03-16T17:53:54.682Z,26.33
2018-03-16T17:56:22.574Z,15.30
2018-03-16T17:58:50.120Z,13.90
2018-03-16T18:01:18.204Z,14.77
2018-03-16T18:03:46.107Z,15.20
2018-03-16T18:06:13.706Z,14.97
2018-03-16T18:08:41.305Z,21.03
2018-03-16T18:11:09.033Z,17.80
2018-03-16T18:13:36.628Z,17.00
2018-03-16T18:16:04.199Z,18.47
2018-03-16T18:18:32.129Z,23.17
2018-03-16T18:20:59.691Z,18.07
2018-03-16T18:23:27.247Z,19.57
2018-03-16T18:25:54.956Z,16.20
2018-03-16T18:28:22.519Z,18.17
2018-03-16T18:30:50.124Z,16.13
2018-03-16T18:33:17.730Z,17.40
2018-03-16T18:35:45.300Z,20.70
2018-03-16T18:38:12.870Z,22.53
2018-03-16T18:40:40.607Z,15.97
2018-03-16T18:43:08.169Z,15.30
2018-03-16T18:45:35.738Z,15.13
2018-03-16T18:48:03.434Z,14.10
2018-03-16T18:50:30.982Z,15.17
2018-03-16T18:52:58.562Z,14.70
2018-03-16T18:55:26.288Z,13.30
2018-03-16T18:57:53.855Z,13.83
2018-03-16T19:00:21.489Z,14.60
2018-03-16T19:02:49.184Z,15.70
2018-03-16T19:05:16.725Z,16.93
2018-03-16T19:07:44.265Z,17.10
2018-03-16T19:10:12.107Z,15.23
2018-03-16T19:12:39.658Z,16.87
2018-03-16T19:15:07.225Z,17.87
2018-03-16T19:17:34.960Z,13.93
2018-03-16T19:20:02.528Z,14.67
2018-03-16T19:22:30.092Z,14.97
2018-03-16T19:24:57.688Z,14.40
2018-03-16T19:27:25.244Z,15.90
2018-03-16T19:29:52.804Z,13.53
2018-03-16T19:32:20.697Z,14.73
2018-03-16T19:34:48.258Z,13.63
2018-03-16T19:37:15.810Z,12.47
2018-03-16T19:39:43.422Z,12.07
2018-03-16T19:42:10.971Z,13.30
2018-03-16T19:44:38.540Z,12.20
2018-03-16T19:47:06.119Z,13.27
2018-03-16T19:49:33.687Z,13.00
2018-03-16T19:52:01.251Z,11.53
2018-03-16T19:54:28.984Z,11.50
2018-03-16T19:56:56.536Z,12.07
2018-03-16T19:59:24.121Z,12.13
2018-03-16T20:01:51.727Z,11.33
2018-03-16T20:04:19.294Z,12.20
2018-03-16T20:06:46.846Z,12.43
2018-03-16T20:09:14.406Z,12.10
2018-03-16T20:11:41.962Z,10.90
2018-03-16T20:14:09.831Z,10.40
2018-03-16T20:16:37.414Z,11.17
2018-03-16T20:19:04.982Z,11.40
2018-03-16T20:21:32.560Z,12.50
2018-03-16T20:24:00.114Z,10.40
2018-03-16T20:26:27.707Z,10.97
2018-03-16T20:28:55.396Z,10.63
2018-03-16T20:31:23.081Z,12.60
2018-03-16T20:33:50.646Z,12.03
2018-03-16T20:36:18.229Z,11.20
2018-03-16T20:38:45.815Z,11.17
2018-03-16T20:41:13.364Z,9.93
2018-03-16T20:43:41.242Z,9.53
2018-03-16T20:46:08.819Z,10.37
2018-03-16T20:48:36.402Z,10.90
2018-03-16T20:51:04.092Z,9.67
2018-03-16T20:53:31.655Z,8.27
2018-03-16T20:55:59.227Z,8.50
2018-03-16T20:58:26.803Z,7.70
2018-03-16T21:00:54.380Z,8.47
2018-03-16T21:03:21.967Z,8.10
2018-03-16T21:05:49.723Z,8.43
2018-03-16T21:08:17.289Z,8.20
2018-03-16T21:10:44.867Z,7.60
2018-03-16T21:13:12.608Z,7.57
2018-03-16T21:15:40.232Z,8.10
2018-03-16T21:18:07.789Z,6.80
2018-03-16T21:20:35.414Z,6.90
2018-03-16T21:23:02.973Z,7.33
2018-03-16T21:25:30.543Z,7.87
2018-03-16T21:27:58.260Z,7.80
2018-03-16T21:30:25.801Z,6.97
2018-03-16T21:32:53.347Z,7.67
2018-03-16T21:35:21.259Z,7.73
2018-03-16T21:37:48.860Z,7.60
2018-03-16T21:40:16.409Z,9.07
2018-03-16T21:42:44.001Z,8.07
2018-03-16T21:45:11.566Z,6.97
2018-03-16T21:47:39.138Z,8.00
2018-03-16T21:50:06.743Z,7.60
2018-03-16T21:52:34.293Z,7.47
2018-03-16T21:55:01.865Z,16.03
2018-03-16T21:57:29.465Z,10.60
2018-03-16T21:59:57.027Z,7.83
2018-03-16T22:02:24.590Z,7.10
2018-03-16T22:04:52.306Z,7.10
2018-03-16T22:07:19.875Z,7.00
2018-03-16T22:09:47.431Z,9.00
2018-03-16T22:12:15.222Z,7.27
2018-03-16T22:14:42.777Z,7.60
2018-03-16T22:17:10.320Z,7.70
2018-03-16T22:19:37.914Z,6.50
2018-03-16T22:22:05.464Z,6.97
2018-03-16T22:24:33.011Z,7.47
2018-03-16T22:27:00.600Z,7.63
2018-03-16T22:29:28.169Z,7.03
2018-03-16T22:31:55.719Z,7.20
2018-03-16T22:34:23.300Z,6.57
2018-03-16T22:36:50.850Z,6.40
2018-03-16T22:39:18.407Z,5.53
2018-03-16T22:41:45.977Z,5.77
2018-03-16T22:44:13.532Z,5.37
2018-03-16T22:46:41.086Z,5.20
2018-03-16T22:49:08.676Z,5.00
2018-03-16T22:51:36.246Z,4.77
2018-03-16T22:54:03.798Z,5.37
2018-03-16T22:56:31.382Z,5.20
2018-03-16T22:58:58.946Z,4.87
2018-03-16T23:01:26.490Z,4.67
2018-03-16T23:03:54.062Z,5.20
2018-03-16T23:06:21.655Z,5.47
2018-03-16T23:08:49.202Z,5.37
2018-03-16T23:11:16.775Z,5.63
2018-03-16T23:13:44.326Z,5.30
2018-03-16T23:16:11.871Z,5.23
2018-03-16T23:18:39.608Z,4.93
2018-03-16T23:21:07.150Z,5.57
2018-03-16T23:23:34.696Z,5.67
2018-03-16T23:26:02.337Z,5.27
2018-03-16T23:28:29.907Z,6.83
2018-03-16T23:30:57.453Z,4.83
2018-03-16T23:33:25.243Z,5.67
2018-03-16T23:35:52.791Z,4.30
2018-03-16T23:38:20.332Z,4.90
2018-03-16T23:40:48.079Z,6.00
2018-03-16T23:43:15.625Z,5.63
2018-03-16T23:45:43.171Z,5.80
2018-03-16T23:48:10.739Z,5.50
2018-03-16T23:50:38.289Z,5.20
2018-03-16T23:53:05.830Z,6.20
2018-03-16T23:55:33.406Z,4.30
2018-03-16T23:58:00.953Z,5.43
